Island Grove, Illinois
Current Conditions -  °F | °C
As of 5:35 PM on Saturday 22 Nov 2014 (Local Time) from K1H2 Reporting Station
Overcast Overcast  
Wind Chill: 58°   Ceiling: 4100
Heat Index: 58°   Visibility: NA
Dew Point: 41°   Wind: 7mph
Humidity: 54%   Direction: 180°S
Pressure: 29.99"   Gusts: NA
Location:  39.1301°N, 88.4695°W
Report Text: K1H2 222335Z AUTO 18006KT OVC041 14/05 A2999 RMK AO2 T01430051 PWINO
Loading
Personal Weather Stations






























Interactive Weather Map New forecast layout! Learn more

10-Day Weather Forecast

Advertisements
Track Severe Weather on mobile